Time;durP1;ratioP1;P1;durP2;ratioP2;P2;SDS_P1;SDS_P2;PMS_P1;PMS_P2;Temp;Humidity;BMP_temperature;BMP_pressure;BME280_temperature;BME280_humidity;BME280_pressure;Samples;Min_cycle;Max_cycle;Signal;HPM_P1;HPM_P2
2022/10/15 00:00:49;;;;;;;7.50;3.85;;;;;;;14.19;100.00;100332.59;5093706;28;20023;-71
2022/10/15 00:03:15;;;;;;;7.25;3.97;;;;;;;14.20;100.00;100359.81;5111591;28;20442;-71
2022/10/15 00:05:41;;;;;;;7.85;3.70;;;;;;;14.63;100.00;100412.84;5111576;28;20032;-71
2022/10/15 00:08:09;;;;;;;6.28;3.47;;;;;;;14.39;100.00;100357.47;5093630;28;20035;-71
2022/10/15 00:10:35;;;;;;;8.00;4.00;;;;;;;13.93;100.00;100327.59;5111840;28;20059;-70
2022/10/15 00:13:00;;;;;;;6.75;3.83;;;;;;;14.35;100.00;100400.25;5111398;28;20066;-70
2022/10/15 00:15:26;;;;;;;6.07;3.72;;;;;;;14.20;100.00;100379.47;5111106;28;20130;-71
2022/10/15 00:17:51;;;;;;;5.90;3.67;;;;;;;14.42;100.00;100406.78;5093320;28;20054;-73
2022/10/15 00:20:17;;;;;;;7.50;3.83;;;;;;;14.26;100.00;100392.84;5111129;28;20479;-71
2022/10/15 00:22:43;;;;;;;6.75;3.67;;;;;;;14.26;100.00;100386.94;5093755;28;20489;-79
2022/10/15 00:25:09;;;;;;;5.63;3.55;;;;;;;14.13;100.00;100371.19;5111326;28;20035;-70
2022/10/15 00:27:36;;;;;;;6.75;3.75;;;;;;;14.23;100.00;100402.38;5092713;28;20028;-70
2022/10/15 00:30:04;;;;;;;4.35;3.80;;;;;;;14.22;100.00;100388.75;5092776;28;20033;-71
2022/10/15 00:32:30;;;;;;;8.25;3.70;;;;;;;14.02;100.00;100380.13;5093295;28;20059;-70
2022/10/15 00:34:55;;;;;;;4.72;3.53;;;;;;;14.30;100.00;100386.78;5093040;28;20031;-71
2022/10/15 00:37:22;;;;;;;6.75;3.80;;;;;;;14.48;100.00;100392.97;5111546;28;20028;-70
2022/10/15 00:39:47;;;;;;;7.70;3.70;;;;;;;14.06;100.00;100325.44;5110990;28;20060;-71
2022/10/15 00:42:13;;;;;;;7.50;3.65;;;;;;;14.05;100.00;100342.50;5111457;28;20059;-71
2022/10/15 00:44:50;;;;;;;9.05;4.25;;;;;;;14.42;100.00;100393.19;5111599;28;20038;-73
2022/10/15 00:47:22;;;;;;;6.57;3.53;;;;;;;14.26;100.00;100371.59;5110977;28;20036;-71
2022/10/15 00:49:55;;;;;;;5.22;3.60;;;;;;;13.81;100.00;100341.66;5111217;28;20039;-73
2022/10/15 00:52:38;;;;;;;8.98;3.75;;;;;;;14.16;100.00;100380.47;5092667;28;20059;-72
2022/10/15 00:55:28;;;;;;;8.27;4.10;;;;;;;14.26;100.00;100376.69;5111182;28;20130;-71
2022/10/15 00:57:55;;;;;;;5.85;3.75;;;;;;;13.85;100.00;100314.25;5111211;28;20045;-72
2022/10/15 01:00:20;;;;;;;6.05;3.63;;;;;;;14.04;100.00;100380.91;5110753;28;20053;-71
2022/10/15 01:02:46;;;;;;;4.88;3.60;;;;;;;13.69;100.00;100302.91;5110835;28;20056;-76
2022/10/15 01:05:15;;;;;;;6.05;3.85;;;;;;;14.15;100.00;100373.69;5110774;28;20054;-71
2022/10/15 01:07:40;;;;;;;8.07;4.05;;;;;;;13.96;100.00;100377.78;5111440;28;20042;-71
2022/10/15 01:10:08;;;;;;;7.20;4.10;;;;;;;13.20;100.00;100268.03;5110982;28;20031;-71
2022/10/15 01:12:42;;;;;;;6.95;4.07;;;;;;;13.56;100.00;100315.31;5110902;28;20091;-72
2022/10/15 01:15:21;;;;;;;7.40;4.68;;;;;;;13.94;100.00;100378.66;5092100;28;20024;-72
2022/10/15 01:17:56;;;;;;;8.43;4.32;;;;;;;13.78;100.00;100316.22;5111114;28;20103;-76
2022/10/15 01:20:49;;;;;;;6.57;4.35;;;;;;;14.20;100.00;100376.91;5110854;28;20110;-72
2022/10/15 01:23:52;;;;;;;5.95;4.32;;;;;;;13.91;100.00;100383.91;5092709;28;20024;-71
2022/10/15 01:26:17;;;;;;;9.95;4.10;;;;;;;14.05;100.00;100380.84;5113769;28;20030;-76
2022/10/15 01:29:23;;;;;;;7.43;4.13;;;;;;;13.91;100.00;100337.03;5096368;28;20378;-73
2022/10/15 01:32:03;;;;;;;7.88;4.32;;;;;;;14.20;100.00;100374.38;5113584;28;20490;-73
2022/10/15 01:34:41;;;;;;;9.57;4.78;;;;;;;13.92;100.00;100379.63;5096594;28;20076;-71
2022/10/15 01:37:30;;;;;;;7.30;4.07;;;;;;;13.98;100.00;100373.47;5114826;28;20024;-70
2022/10/15 01:40:12;;;;;;;8.43;4.40;;;;;;;14.21;100.00;100365.78;5095762;28;20028;-71
2022/10/15 01:42:51;;;;;;;6.65;4.43;;;;;;;13.53;100.00;100296.66;5114322;28;20044;-71
2022/10/15 01:45:24;;;;;;;8.48;4.43;;;;;;;13.90;100.00;100345.63;5114711;28;20028;-69
2022/10/15 01:47:54;;;;;;;7.43;4.40;;;;;;;13.46;100.00;100296.06;5114430;28;20558;-72
2022/10/15 01:50:24;;;;;;;8.88;4.63;;;;;;;13.58;100.00;100323.75;5114131;28;20023;-73
2022/10/15 01:52:51;;;;;;;6.97;4.22;;;;;;;13.97;100.00;100384.56;5095909;28;20034;-76
2022/10/15 01:55:20;;;;;;;8.27;4.28;;;;;;;13.92;100.00;100380.44;5114485;28;20410;-70
2022/10/15 01:57:47;;;;;;;7.05;4.50;;;;;;;13.69;100.00;100364.25;5114595;28;20024;-72
2022/10/15 02:00:13;;;;;;;7.28;4.38;;;;;;;13.82;100.00;100376.56;5114640;28;20529;-73
2022/10/15 02:02:39;;;;;;;7.25;4.10;;;;;;;13.57;100.00;100332.28;5114198;28;20119;-73
2022/10/15 02:05:10;;;;;;;6.75;3.97;;;;;;;13.37;100.00;100305.78;5114236;28;20122;-70
2022/10/15 02:07:54;;;;;;;5.03;3.83;;;;;;;13.89;100.00;100395.91;5114156;28;20023;-71
2022/10/15 02:10:48;;;;;;;12.27;4.63;;;;;;;13.67;100.00;100389.00;5113978;28;20489;-71
2022/10/15 02:13:14;;;;;;;10.95;4.30;;;;;;;13.79;100.00;100381.75;5114104;28;20027;-70
2022/10/15 02:16:08;;;;;;;6.88;4.20;;;;;;;13.64;100.00;100378.91;5095265;28;20500;-71
2022/10/15 02:18:43;;;;;;;9.23;4.28;;;;;;;13.81;100.00;100387.66;5102354;28;20104;-71
2022/10/15 02:21:44;;;;;;;8.05;4.40;;;;;;;13.76;100.00;100381.03;5095394;28;20031;-70
2022/10/15 02:24:22;;;;;;;8.15;4.28;;;;;;;13.30;100.00;100338.34;5114205;28;20107;-71
2022/10/15 02:26:51;;;;;;;8.73;4.30;;;;;;;13.56;100.00;100386.84;5114066;28;20034;-71
2022/10/15 02:29:20;;;;;;;8.07;4.78;;;;;;;13.39;100.00;100327.00;5113994;28;20027;-71
2022/10/15 02:31:47;;;;;;;9.27;3.72;;;;;;;13.58;100.00;100399.56;5113728;28;20123;-72
2022/10/15 02:34:19;;;;;;;8.77;4.15;;;;;;;13.63;100.00;100385.72;5113711;28;20134;-71
2022/10/15 02:36:46;;;;;;;10.88;4.53;;;;;;;13.66;100.00;100398.41;5113207;28;20027;-71
2022/10/15 02:39:17;;;;;;;8.23;3.78;;;;;;;13.41;100.00;100346.47;5113824;28;20077;-72
2022/10/15 02:41:43;;;;;;;8.47;4.17;;;;;;;13.25;100.00;100335.09;5113584;28;20130;-75
2022/10/15 02:44:09;;;;;;;8.80;3.70;;;;;;;13.27;100.00;100333.31;5113180;28;20031;-71
2022/10/15 02:46:34;;;;;;;6.53;3.78;;;;;;;13.71;100.00;100401.63;5113469;28;20481;-70
2022/10/15 02:49:00;;;;;;;4.72;3.22;;;;;;;13.28;100.00;100336.72;5112994;28;20046;-71
2022/10/15 02:51:25;;;;;;;5.05;3.55;;;;;;;13.75;100.00;100395.53;5112853;28;20396;-71
2022/10/15 02:53:51;;;;;;;5.40;3.20;;;;;;;13.16;100.00;100288.59;5094946;28;20504;-70
2022/10/15 02:56:16;;;;;;;5.30;2.85;;;;;;;13.38;100.00;100369.56;5113226;28;20031;-70
2022/10/15 02:58:42;;;;;;;5.72;2.90;;;;;;;13.62;100.00;100394.28;5094144;28;20032;-71
2022/10/15 03:01:07;;;;;;;4.95;2.30;;;;;;;13.65;100.00;100393.34;5113443;28;20020;-71
2022/10/15 03:03:33;;;;;;;3.35;2.70;;;;;;;13.70;100.00;100384.66;5113449;28;20053;-72
2022/10/15 03:06:06;;;;;;;8.88;2.67;;;;;;;13.24;100.00;100324.94;5112837;28;20036;-71
2022/10/15 03:08:32;;;;;;;6.05;2.83;;;;;;;13.28;100.00;100335.00;5112998;28;20015;-72
2022/10/15 03:11:01;;;;;;;8.30;2.70;;;;;;;13.67;100.00;100389.84;5112989;28;20045;-72
2022/10/15 03:13:27;;;;;;;6.60;2.63;;;;;;;13.69;100.00;100398.31;5112653;28;20504;-72
2022/10/15 03:15:53;;;;;;;5.43;2.40;;;;;;;13.41;100.00;100348.22;5094507;28;20024;-72
2022/10/15 03:18:18;;;;;;;5.68;2.58;;;;;;;13.64;100.00;100392.53;5112851;28;20077;-71
2022/10/15 03:20:51;;;;;;;5.22;2.70;;;;;;;13.19;100.00;100340.44;5112585;28;20028;-71
2022/10/15 03:23:17;;;;;;;6.70;2.55;;;;;;;13.56;100.00;100398.78;5092661;28;20063;-73
2022/10/15 03:25:42;;;;;;;7.15;1.90;;;;;;;13.41;100.00;100382.22;5094167;28;20457;-72
2022/10/15 03:28:07;;;;;;;8.80;2.40;;;;;;;13.08;100.00;100301.63;5112370;28;20039;-72
2022/10/15 03:30:33;;;;;;;5.78;3.10;;;;;;;13.46;100.00;100398.25;5112719;28;20024;-73
2022/10/15 03:32:58;;;;;;;27.13;15.88;;;;;;;13.47;100.00;100399.09;5112413;28;20110;-72
2022/10/15 03:35:23;;;;;;;38.13;22.33;;;;;;;13.24;100.00;100342.81;5112333;28;20032;-72
2022/10/15 03:37:49;;;;;;;27.42;17.10;;;;;;;13.16;100.00;100339.66;5093864;28;20471;-72
2022/10/15 03:40:14;;;;;;;22.70;13.07;;;;;;;13.07;100.00;100345.09;5093710;28;20130;-71
2022/10/15 03:42:40;;;;;;;14.18;7.60;;;;;;;13.35;100.00;100397.75;5109807;28;20110;-71
2022/10/15 03:45:06;;;;;;;12.18;6.35;;;;;;;13.07;100.00;100334.88;5112629;28;20035;-72
2022/10/15 03:47:31;;;;;;;7.25;4.25;;;;;;;13.25;100.00;100358.06;5093862;28;20121;-72
2022/10/15 03:49:57;;;;;;;9.95;4.93;;;;;;;13.55;100.00;100389.41;5111134;28;20525;-70
2022/10/15 03:52:22;;;;;;;9.52;4.38;;;;;;;13.40;100.00;100367.78;5111842;28;20458;-70
2022/10/15 03:54:48;;;;;;;8.80;4.68;;;;;;;13.53;100.00;100371.59;5111329;28;20064;-70
2022/10/15 03:57:13;;;;;;;12.38;7.10;;;;;;;13.47;100.00;100397.34;5112325;28;20027;-73
2022/10/15 03:59:39;;;;;;;15.57;8.38;;;;;;;13.02;100.00;100324.78;5111491;28;20386;-74
2022/10/15 04:02:04;;;;;;;21.08;10.13;;;;;;;13.04;100.00;100323.03;5112014;28;20050;-72
2022/10/15 04:04:30;;;;;;;25.58;11.88;;;;;;;13.47;100.00;100402.44;5093642;28;20031;-72
2022/10/15 04:06:55;;;;;;;8.80;3.92;;;;;;;13.19;100.00;100390.66;5106395;28;20066;-72
2022/10/15 04:09:20;;;;;;;7.57;2.88;;;;;;;12.84;100.00;100335.56;5086041;28;20200;-72
2022/10/15 04:11:46;;;;;;;8.50;2.70;;;;;;;12.72;100.00;100329.13;5093663;28;20031;-72
2022/10/15 04:14:11;;;;;;;7.95;2.58;;;;;;;13.11;100.00;100388.34;5093593;28;20558;-73
2022/10/15 04:16:37;;;;;;;6.38;2.50;;;;;;;13.14;100.00;100336.31;5093383;28;20508;-74
2022/10/15 04:19:04;;;;;;;8.77;4.28;;;;;;;13.07;100.00;100355.28;5093822;28;20035;-72
2022/10/15 04:21:30;;;;;;;9.98;5.28;;;;;;;13.23;100.00;100387.09;5111949;28;20082;-74
2022/10/15 04:23:55;;;;;;;12.60;6.63;;;;;;;13.02;100.00;100346.03;5093753;28;20035;-73
2022/10/15 04:26:20;;;;;;;12.95;7.13;;;;;;;13.26;100.00;100398.06;5111410;28;20394;-72
2022/10/15 04:28:47;;;;;;;8.85;3.55;;;;;;;13.22;100.00;100388.81;5093197;28;20062;-74
2022/10/15 04:31:12;;;;;;;6.72;2.88;;;;;;;12.91;100.00;100344.72;5099049;28;20082;-72
2022/10/15 04:33:38;;;;;;;6.63;2.88;;;;;;;13.21;100.00;100379.47;5109720;28;20035;-72
2022/10/15 04:36:06;;;;;;;7.95;2.58;;;;;;;13.29;100.00;100408.16;5111698;28;20185;-72
2022/10/15 04:38:32;;;;;;;5.25;2.60;;;;;;;13.32;100.00;100423.38;5111372;28;20108;-73
2022/10/15 04:41:00;;;;;;;5.65;2.40;;;;;;;13.53;100.00;100421.84;5092702;28;20079;-72
2022/10/15 04:43:26;;;;;;;5.70;2.85;;;;;;;13.45;100.00;100405.97;5111058;28;20050;-73
2022/10/15 04:45:55;;;;;;;8.43;3.13;;;;;;;13.34;100.00;100392.69;5111115;28;20755;-72
2022/10/15 04:48:20;;;;;;;5.72;2.90;;;;;;;13.29;100.00;100397.94;5111486;28;20024;-72
2022/10/15 04:50:46;;;;;;;8.88;3.17;;;;;;;13.67;100.00;100406.91;5111029;28;20428;-72
2022/10/15 04:53:11;;;;;;;6.80;3.22;;;;;;;13.32;100.00;100377.44;5093312;28;20027;-72
2022/10/15 04:55:36;;;;;;;8.50;2.70;;;;;;;13.38;100.00;100407.03;5110667;28;20077;-72
2022/10/15 04:58:02;;;;;;;6.45;2.75;;;;;;;13.01;100.00;100358.84;5111635;28;20082;-71
2022/10/15 05:00:27;;;;;;;8.18;2.97;;;;;;;13.30;100.00;100358.75;5092780;28;20469;-72
2022/10/15 05:02:53;;;;;;;8.73;3.28;;;;;;;13.70;100.00;100389.75;5110743;28;20049;-71
2022/10/15 05:05:18;;;;;;;9.95;3.53;;;;;;;13.49;100.00;100420.31;5110890;28;20032;-72
2022/10/15 05:07:43;;;;;;;8.00;3.60;;;;;;;13.64;100.00;100425.75;5110904;28;20731;-72
2022/10/15 05:10:09;;;;;;;8.93;4.15;;;;;;;13.48;100.00;100409.25;5111321;28;20106;-73
2022/10/15 05:12:34;;;;;;;11.48;3.95;;;;;;;13.26;100.00;100369.97;5110902;28;20057;-74
2022/10/15 05:14:59;;;;;;;10.10;4.13;;;;;;;13.00;100.00;100380.97;5092989;28;20020;-72
2022/10/15 05:17:25;;;;;;;8.10;3.55;;;;;;;13.31;100.00;100390.25;5110931;28;20055;-74
2022/10/15 05:19:50;;;;;;;7.53;2.65;;;;;;;13.22;100.00;100358.19;5111217;28;20452;-71
2022/10/15 05:22:16;;;;;;;7.70;3.03;;;;;;;13.17;100.00;100369.44;5110950;28;20482;-71
2022/10/15 05:24:41;;;;;;;5.03;2.50;;;;;;;13.29;100.00;100400.50;5110696;28;20023;-72
2022/10/15 05:27:06;;;;;;;5.32;2.63;;;;;;;12.91;100.00;100298.78;5110598;28;20034;-71
2022/10/15 05:29:32;;;;;;;6.22;2.50;;;;;;;13.26;100.00;100353.81;5110688;28;20027;-71
2022/10/15 05:31:57;;;;;;;4.13;2.40;;;;;;;12.93;100.00;100322.53;5110342;28;20056;-73
2022/10/15 05:34:25;;;;;;;4.68;2.38;;;;;;;13.37;100.00;100352.56;5110948;28;20027;-71
2022/10/15 05:36:51;;;;;;;7.70;2.30;;;;;;;13.83;100.00;100416.56;5110612;28;20030;-73
2022/10/15 05:39:16;;;;;;;4.97;2.50;;;;;;;13.80;100.00;100416.69;5110749;28;20023;-72
2022/10/15 05:41:42;;;;;;;8.45;2.97;;;;;;;13.48;100.00;100353.06;5110642;28;20108;-71
2022/10/15 05:44:07;;;;;;;7.97;3.47;;;;;;;14.03;100.00;100402.25;5092276;28;20425;-71
2022/10/15 05:46:32;;;;;;;8.38;3.22;;;;;;;14.08;100.00;100414.00;5110238;28;20031;-71
2022/10/15 05:48:58;;;;;;;8.88;3.00;;;;;;;14.15;100.00;100404.38;5092013;28;20035;-71
2022/10/15 05:51:25;;;;;;;5.95;3.30;;;;;;;14.30;100.00;100429.44;5091719;28;20392;-72
2022/10/15 05:53:52;;;;;;;7.22;2.70;;;;;;;13.84;100.00;100346.66;5110948;28;20028;-73
2022/10/15 05:56:17;;;;;;;8.85;2.47;;;;;;;14.46;100.00;100428.00;5110583;28;20232;-74
2022/10/15 05:58:43;;;;;;;6.28;2.60;;;;;;;14.19;100.00;100390.59;5089993;28;20042;-71
2022/10/15 06:01:11;;;;;;;6.78;2.42;;;;;;;14.32;100.00;100409.75;5107798;28;20106;-71
2022/10/15 06:03:37;;;;;;;8.95;2.78;;;;;;;14.39;100.00;100423.97;5110522;28;20035;-72
2022/10/15 06:06:02;;;;;;;5.50;2.45;;;;;;;14.57;100.00;100431.81;5090815;28;20085;-71
2022/10/15 06:08:29;;;;;;;6.22;2.60;;;;;;;14.37;100.00;100387.38;5088254;28;20036;-72
2022/10/15 06:11:00;;;;;;;8.27;3.00;;;;;;;14.43;100.00;100393.13;5110647;28;20019;-71
2022/10/15 06:13:26;;;;;;;7.57;2.58;;;;;;;14.53;100.00;100388.50;5087504;28;20059;-71
2022/10/15 06:15:51;;;;;;;5.63;2.72;;;;;;;14.76;100.00;100437.06;5084449;28;20480;-72
2022/10/15 06:18:16;;;;;;;5.25;2.90;;;;;;;14.85;100.00;100446.16;5113082;28;20478;-74
2022/10/15 06:20:42;;;;;;;8.00;2.53;;;;;;;15.05;100.00;100443.66;5113925;28;20028;-74
2022/10/15 06:23:10;;;;;;;5.78;2.42;;;;;;;14.62;100.00;100388.13;5096129;28;20036;-73
2022/10/15 06:25:35;;;;;;;4.85;2.67;;;;;;;14.76;100.00;100417.44;5114051;28;20032;-73
2022/10/15 06:28:02;;;;;;;6.00;2.97;;;;;;;14.56;100.00;100378.97;5113921;28;20038;-73
2022/10/15 06:30:28;;;;;;;10.23;3.22;;;;;;;15.08;100.00;100433.28;5094258;28;20024;-71
2022/10/15 06:32:53;;;;;;;5.60;3.40;;;;;;;15.25;100.00;100452.22;5094805;28;20024;-73
2022/10/15 06:35:20;;;;;;;6.53;3.38;;;;;;;14.99;100.00;100396.09;5095107;28;20050;-72
2022/10/15 06:37:46;;;;;;;5.63;3.45;;;;;;;14.76;100.00;100344.94;5113637;28;20043;-73
2022/10/15 06:40:13;;;;;;;10.35;3.50;;;;;;;15.13;100.00;100400.66;5112814;28;20435;-72
2022/10/15 06:42:38;;;;;;;5.25;3.05;;;;;;;15.21;100.00;100390.94;5094700;28;20482;-71
2022/10/15 06:45:05;;;;;;;9.32;3.40;;;;;;;15.69;100.00;100462.47;5095116;28;20080;-71
2022/10/15 06:47:31;;;;;;;4.72;2.92;;;;;;;15.66;100.00;100432.66;5113429;28;20118;-70
2022/10/15 06:49:57;;;;;;;10.20;3.70;;;;;;;15.37;100.00;100384.31;5094469;28;20127;-70
2022/10/15 06:52:23;;;;;;;7.53;3.92;;;;;;;15.68;100.00;100432.59;5112549;28;20027;-73
2022/10/15 06:54:49;;;;;;;8.38;3.65;;;;;;;15.78;100.00;100444.13;5077162;28;20482;-74
2022/10/15 06:57:14;;;;;;;6.20;3.65;;;;;;;15.69;100.00;100412.00;5092522;28;20024;-73
2022/10/15 06:59:40;;;;;;;6.40;3.10;;;;;;;15.89;100.00;100473.56;5074534;28;20032;-71
2022/10/15 07:02:05;;;;;;;7.65;3.60;;;;;;;15.79;100.00;100461.16;5074349;28;20105;-70
2022/10/15 07:04:31;;;;;;;6.95;3.45;;;;;;;15.73;100.00;100415.31;5092459;28;20081;-75
2022/10/15 07:06:56;;;;;;;6.47;3.92;;;;;;;15.94;100.00;100419.50;5093047;28;20054;-71
2022/10/15 07:09:22;;;;;;;5.07;3.70;;;;;;;16.27;100.00;100469.34;5074693;28;20020;-73
2022/10/15 07:11:47;;;;;;;7.30;3.78;;;;;;;15.83;100.00;100401.16;5074229;28;20028;-72
2022/10/15 07:14:13;;;;;;;6.30;3.83;;;;;;;15.80;100.00;100379.06;5105772;28;20020;-72
2022/10/15 07:16:38;;;;;;;11.48;4.13;;;;;;;16.43;100.00;100468.63;5112794;28;20035;-72
2022/10/15 07:19:04;;;;;;;6.25;3.90;;;;;;;16.28;100.00;100435.13;5110696;28;20509;-71
2022/10/15 07:21:30;;;;;;;13.30;4.22;;;;;;;16.71;100.00;100468.28;5095200;28;20036;-73
2022/10/15 07:23:55;;;;;;;12.20;3.53;;;;;;;16.57;100.00;100437.25;5112510;28;20023;-71
2022/10/15 07:26:21;;;;;;;8.88;3.85;;;;;;;16.24;100.00;100370.25;5112389;28;20030;-72
2022/10/15 07:28:46;;;;;;;9.75;3.50;;;;;;;17.04;100.00;100443.59;5113060;28;20452;-74
2022/10/15 07:31:13;;;;;;;10.02;3.20;;;;;;;16.79;100.00;100421.69;5095103;28;20035;-75
2022/10/15 07:33:41;;;;;;;8.23;3.20;;;;;;;16.73;100.00;100415.09;5113192;28;20031;-75
2022/10/15 07:36:09;;;;;;;5.55;3.20;;;;;;;17.18;100.00;100469.47;5107972;28;20505;-77
2022/10/15 07:38:35;;;;;;;5.40;3.22;;;;;;;17.04;100.00;100489.00;5093218;28;20070;-75
2022/10/15 07:41:03;;;;;;;7.07;3.63;;;;;;;17.06;100.00;100464.91;5092316;28;20123;-73
2022/10/15 07:43:29;;;;;;;8.48;4.03;;;;;;;17.62;100.00;100467.38;5104244;28;20124;-72
2022/10/15 07:45:55;;;;;;;7.68;4.20;;;;;;;17.78;100.00;100470.03;5105850;28;20500;-73
2022/10/15 07:48:22;;;;;;;8.30;4.03;;;;;;;17.90;100.00;100423.94;5092059;28;20032;-72
2022/10/15 07:50:53;;;;;;;6.65;3.90;;;;;;;18.24;100.00;100425.63;5091864;28;20036;-73
2022/10/15 07:53:18;;;;;;;3.72;2.78;;;;;;;17.44;100.00;100431.41;5090371;28;20032;-73
2022/10/15 07:55:44;;;;;;;8.88;3.58;;;;;;;18.45;100.00;100427.09;5073727;28;20109;-73
2022/10/15 07:58:09;;;;;;;5.28;2.97;;;;;;;17.99;100.00;100474.09;5091741;28;20032;-73
2022/10/15 08:00:35;;;;;;;6.63;3.10;;;;;;;18.23;100.00;100426.50;5091955;28;20557;-75
2022/10/15 08:03:00;;;;;;;5.85;2.78;;;;;;;18.35;100.00;100482.50;5091512;28;20028;-73
2022/10/15 08:05:26;;;;;;;5.95;3.05;;;;;;;18.52;100.00;100476.53;5091200;28;20547;-73
2022/10/15 08:07:51;;;;;;;5.85;2.80;;;;;;;18.84;100.00;100471.31;5091701;28;20039;-73
2022/10/15 08:10:17;;;;;;;7.32;2.78;;;;;;;18.68;100.00;100410.38;5090456;28;20031;-73
2022/10/15 08:12:43;;;;;;;6.15;3.20;;;;;;;19.68;100.00;100424.47;5090572;28;20102;-73
2022/10/15 08:15:09;;;;;;;8.88;3.10;;;;;;;19.29;100.00;100418.97;5072960;28;20024;-73
2022/10/15 08:17:35;;;;;;;6.88;3.08;;;;;;;19.75;100.00;100466.19;5091729;28;20035;-72
2022/10/15 08:20:00;;;;;;;6.72;2.90;;;;;;;19.96;100.00;100475.28;5091422;28;20036;-73
2022/10/15 08:22:26;;;;;;;5.88;2.88;;;;;;;19.31;100.00;100470.47;5091246;28;20036;-74
2022/10/15 08:24:51;;;;;;;8.77;3.10;;;;;;;20.16;98.50;100472.38;5091098;28;20232;-74
2022/10/15 08:27:17;;;;;;;6.97;3.03;;;;;;;20.45;97.72;100474.06;5090746;28;20047;-74
2022/10/15 08:29:42;;;;;;;4.72;3.20;;;;;;;20.47;89.28;100471.38;5073191;28;20028;-73
2022/10/15 08:32:08;;;;;;;4.70;2.47;;;;;;;19.88;90.99;100437.03;5072664;28;20024;-73
2022/10/15 08:34:33;;;;;;;6.53;3.10;;;;;;;19.60;93.59;100429.22;5072506;28;20028;-73
2022/10/15 08:36:59;;;;;;;5.50;2.80;;;;;;;20.22;91.91;100456.53;5091649;28;20028;-73
2022/10/15 08:39:25;;;;;;;7.63;3.00;;;;;;;19.29;96.93;100436.19;5072840;28;20031;-74
2022/10/15 08:41:53;;;;;;;4.72;3.15;;;;;;;19.64;94.57;100474.56;5072208;28;20080;-73
2022/10/15 08:44:29;;;;;;;5.90;3.45;;;;;;;19.66;92.17;100440.94;5090998;28;20040;-73
2022/10/15 08:47:06;;;;;;;6.38;3.47;;;;;;;19.40;94.56;100429.53;5091074;28;20024;-73
2022/10/15 08:49:53;;;;;;;4.78;3.15;;;;;;;20.27;87.36;100433.84;5090494;28;20085;-73
2022/10/15 08:52:45;;;;;;;10.73;4.05;;;;;;;20.40;88.08;100472.69;5073064;28;20031;-73
2022/10/15 08:55:17;;;;;;;4.78;3.88;;;;;;;20.66;82.51;100472.75;5072877;28;20024;-73
2022/10/15 08:57:50;;;;;;;8.88;3.97;;;;;;;21.05;79.44;100476.41;5090676;28;20032;-72
2022/10/15 09:00:33;;;;;;;6.38;3.25;;;;;;;20.23;87.40;100463.34;5090442;28;20089;-74
2022/10/15 09:03:04;;;;;;;4.28;2.63;;;;;;;20.90;82.55;100472.16;5090583;28;20020;-73
2022/10/15 09:05:58;;;;;;;6.88;2.60;;;;;;;20.70;87.63;100473.38;5090415;28;20028;-74
2022/10/15 09:08:50;;;;;;;8.57;2.78;;;;;;;21.49;82.12;100462.25;5059248;28;20036;-74
2022/10/15 09:11:29;;;;;;;9.60;3.05;;;;;;;19.86;88.56;100383.84;5072592;28;20024;-73
2022/10/15 09:13:56;;;;;;;6.28;3.10;;;;;;;20.22;86.54;100422.13;5090475;28;20038;-72
2022/10/15 09:16:26;;;;;;;8.52;3.40;;;;;;;20.92;86.88;100465.94;5071783;28;20518;-71
2022/10/15 09:18:53;;;;;;;14.30;4.05;;;;;;;21.21;81.98;100422.78;5090244;28;20403;-74
2022/10/15 09:21:26;;;;;;;6.20;3.20;;;;;;;20.80;84.69;100477.06;5090098;28;20499;-75
2022/10/15 09:24:00;;;;;;;11.00;3.35;;;;;;;20.26;92.04;100424.44;5091149;28;20032;-76
2022/10/15 09:26:45;;;;;;;8.75;3.78;;;;;;;19.69;99.10;100433.00;5072860;28;20039;-74
2022/10/15 09:29:32;;;;;;;10.32;3.33;;;;;;;19.77;99.34;100423.91;5072606;28;20113;-73
2022/10/15 09:32:15;;;;;;;5.38;3.00;;;;;;;20.08;98.52;100479.75;5090878;28;20031;-75
2022/10/15 09:34:47;;;;;;;9.75;3.47;;;;;;;19.96;100.00;100480.47;5073718;28;20181;-79
2022/10/15 09:37:40;;;;;;;6.55;3.22;;;;;;;20.60;96.71;100483.44;5091058;28;20096;-75
2022/10/15 09:40:29;;;;;;;6.47;2.92;;;;;;;20.16;93.95;100446.56;5090904;28;20498;-73
2022/10/15 09:42:58;;;;;;;5.53;3.00;;;;;;;19.87;100.00;100488.72;5090474;28;20058;-72
2022/10/15 09:45:25;;;;;;;7.22;3.28;;;;;;;19.87;100.00;100483.56;5072407;28;20122;-73
2022/10/15 09:47:55;;;;;;;6.03;3.05;;;;;;;19.76;100.00;100485.94;5093884;28;20024;-73
2022/10/15 09:50:21;;;;;;;9.70;4.00;;;;;;;19.98;100.00;100477.78;5094425;28;20086;-73
2022/10/15 09:53:25;;;;;;;8.35;3.60;;;;;;;20.13;100.00;100471.69;5094474;28;20028;-73
2022/10/15 09:56:06;;;;;;;7.30;3.95;;;;;;;19.56;100.00;100440.66;5082843;28;20044;-73
2022/10/15 09:58:48;;;;;;;6.68;3.20;;;;;;;19.43;100.00;100480.13;5076469;28;20091;-75
2022/10/15 10:01:28;;;;;;;6.40;4.40;;;;;;;19.27;100.00;100464.66;5094687;28;20039;-73
2022/10/15 10:04:18;;;;;;;11.73;4.60;;;;;;;19.15;100.00;100491.09;5094434;28;20042;-73
2022/10/15 10:06:50;;;;;;;12.02;5.10;;;;;;;18.83;100.00;100435.31;5061593;28;20043;-73
2022/10/15 10:09:22;;;;;;;9.52;4.50;;;;;;;19.51;100.00;100490.84;5093876;28;20087;-74
2022/10/15 10:11:57;;;;;;;12.10;3.53;;;;;;;19.30;100.00;100443.84;5092384;28;20024;-74
2022/10/15 10:14:46;;;;;;;5.38;3.35;;;;;;;19.25;100.00;100491.44;5093759;28;20448;-74
2022/10/15 10:17:17;;;;;;;9.07;3.17;;;;;;;18.97;100.00;100489.53;5083052;28;20482;-74
2022/10/15 10:19:44;;;;;;;6.78;3.35;;;;;;;18.99;100.00;100426.66;5094041;28;20048;-75
2022/10/15 10:22:19;;;;;;;6.70;2.85;;;;;;;18.82;100.00;100411.28;5094669;28;20039;-75
2022/10/15 10:24:46;;;;;;;6.97;3.95;;;;;;;18.67;100.00;100449.94;5094180;28;20529;-73
2022/10/15 10:27:23;;;;;;;8.07;4.65;;;;;;;18.17;100.00;100445.69;5093242;28;20023;-72
2022/10/15 10:30:07;;;;;;;6.68;4.07;;;;;;;18.27;100.00;100473.50;5093496;28;20405;-72
2022/10/15 10:32:34;;;;;;;8.85;4.00;;;;;;;18.45;100.00;100499.19;5093678;28;20028;-72
2022/10/15 10:35:01;;;;;;;8.75;5.03;;;;;;;18.40;100.00;100464.25;5093481;28;20056;-73
2022/10/15 10:37:28;;;;;;;9.80;5.30;;;;;;;18.34;100.00;100446.56;5092628;28;20028;-73
2022/10/15 10:39:59;;;;;;;9.00;5.22;;;;;;;18.50;100.00;100491.22;5093263;28;20479;-72
2022/10/15 10:42:26;;;;;;;12.27;5.20;;;;;;;18.59;100.00;100501.03;5092642;28;20028;-72
2022/10/15 10:44:52;;;;;;;7.45;4.38;;;;;;;18.13;100.00;100426.16;5094433;28;20781;-74
2022/10/15 10:47:20;;;;;;;8.73;3.95;;;;;;;18.44;100.00;100492.34;5113613;28;20032;-71
2022/10/15 10:49:48;;;;;;;11.07;3.75;;;;;;;18.28;100.00;100478.59;5113428;28;20047;-71
2022/10/15 10:52:26;;;;;;;6.03;4.10;;;;;;;18.56;100.00;100475.47;5113281;28;20059;-72
2022/10/15 10:54:59;;;;;;;7.10;4.13;;;;;;;18.51;100.00;100480.00;5113421;28;20082;-71
2022/10/15 10:57:46;;;;;;;8.00;4.50;;;;;;;18.20;100.00;100424.09;5112476;28;20366;-72
2022/10/15 11:00:17;;;;;;;8.73;4.70;;;;;;;18.27;100.00;100428.00;5111793;28;20528;-72
2022/10/15 11:02:43;;;;;;;10.25;4.32;;;;;;;18.30;100.00;100439.91;5113208;28;20073;-73
2022/10/15 11:05:10;;;;;;;9.88;5.60;;;;;;;18.72;100.00;100469.38;5113481;28;20027;-72
2022/10/15 11:07:35;;;;;;;9.10;5.20;;;;;;;18.62;100.00;100470.78;4397514;28;10000804;-73
2022/10/15 11:10:24;;;;;;;8.23;5.03;;;;;;;18.34;100.00;100359.84;5088456;28;20160;-72
2022/10/15 11:13:01;;;;;;;8.48;4.30;;;;;;;18.70;100.00;100432.56;5083551;28;20037;-74
2022/10/15 11:15:29;;;;;;;6.78;4.13;;;;;;;18.86;100.00;100472.06;5069966;28;20032;-74
2022/10/15 11:18:44;;;;;;;6.38;4.05;;;;;;;19.11;100.00;100452.69;5074005;28;20105;-74
2022/10/15 11:21:28;;;;;;;8.57;3.70;;;;;;;19.05;100.00;100462.41;5010733;28;20056;-73
2022/10/15 11:24:34;;;;;;;9.02;3.63;;;;;;;19.11;100.00;100450.94;5001529;28;20050;-74
2022/10/15 11:27:18;;;;;;;7.25;3.70;;;;;;;19.12;100.00;100456.91;4991511;28;20038;-72
2022/10/15 11:30:04;;;;;;;9.57;3.40;;;;;;;18.93;100.00;100387.53;5080470;28;20510;-73